sensor_id;sensor_type;location;lat;lon;timestamp;P1;durP1;ratioP1;P2;durP2;ratioP2
39404;SDS011;25121;51.090;17.038;2023-02-18T00:01:18;6.45;;;2.72;;
39404;SDS011;25121;51.090;17.038;2023-02-18T00:02:51;4.70;;;2.72;;
39404;SDS011;25121;51.090;17.038;2023-02-18T00:04:19;5.70;;;2.60;;
39404;SDS011;25121;51.090;17.038;2023-02-18T00:10:48;6.63;;;2.42;;
39404;SDS011;25121;51.090;17.038;2023-02-18T00:12:12;2.88;;;2.15;;
39404;SDS011;25121;51.090;17.038;2023-02-18T00:13:51;3.67;;;2.22;;
39404;SDS011;25121;51.090;17.038;2023-02-18T00:15:17;4.35;;;2.05;;
39404;SDS011;25121;51.090;17.038;2023-02-18T00:16:52;5.68;;;2.08;;
39404;SDS011;25121;51.090;17.038;2023-02-18T00:18:14;3.15;;;1.92;;
39404;SDS011;25121;51.090;17.038;2023-02-18T00:36:31;4.03;;;2.00;;
39404;SDS011;25121;51.090;17.038;2023-02-18T00:39:03;3.05;;;1.75;;
39404;SDS011;25121;51.090;17.038;2023-02-18T00:40:36;4.05;;;2.72;;
39404;SDS011;25121;51.090;17.038;2023-02-18T00:42:00;7.60;;;2.33;;
39404;SDS011;25121;51.090;17.038;2023-02-18T00:43:42;3.25;;;1.85;;
39404;SDS011;25121;51.090;17.038;2023-02-18T00:45:16;2.45;;;1.65;;
39404;SDS011;25121;51.090;17.038;2023-02-18T00:46:40;7.32;;;2.10;;
39404;SDS011;25121;51.090;17.038;2023-02-18T00:48:11;3.15;;;1.70;;
39404;SDS011;25121;51.090;17.038;2023-02-18T00:49:58;3.17;;;1.67;;
39404;SDS011;25121;51.090;17.038;2023-02-18T00:52:17;6.65;;;2.08;;
39404;SDS011;25121;51.090;17.038;2023-02-18T00:57:51;2.05;;;1.60;;
39404;SDS011;25121;51.090;17.038;2023-02-18T01:00:46;3.42;;;1.67;;
39404;SDS011;25121;51.090;17.038;2023-02-18T01:03:17;2.05;;;1.85;;
39404;SDS011;25121;51.090;17.038;2023-02-18T01:05:32;4.65;;;1.80;;
39404;SDS011;25121;51.090;17.038;2023-02-18T01:07:00;4.90;;;2.08;;
39404;SDS011;25121;51.090;17.038;2023-02-18T01:08:59;2.50;;;1.80;;
39404;SDS011;25121;51.090;17.038;2023-02-18T01:11:03;4.57;;;1.70;;
39404;SDS011;25121;51.090;17.038;2023-02-18T01:12:54;4.63;;;1.90;;
39404;SDS011;25121;51.090;17.038;2023-02-18T01:14:27;4.50;;;2.15;;
39404;SDS011;25121;51.090;17.038;2023-02-18T01:17:55;3.63;;;1.60;;
39404;SDS011;25121;51.090;17.038;2023-02-18T01:19:44;5.45;;;2.05;;
39404;SDS011;25121;51.090;17.038;2023-02-18T01:21:36;2.15;;;1.67;;
39404;SDS011;25121;51.090;17.038;2023-02-18T01:23:02;2.78;;;1.67;;
39404;SDS011;25121;51.090;17.038;2023-02-18T01:24:38;3.58;;;1.90;;
39404;SDS011;25121;51.090;17.038;2023-02-18T01:26:20;3.47;;;1.70;;
39404;SDS011;25121;51.090;17.038;2023-02-18T01:27:43;4.53;;;1.80;;
39404;SDS011;25121;51.090;17.038;2023-02-18T01:29:06;3.70;;;1.50;;
39404;SDS011;25121;51.090;17.038;2023-02-18T01:30:27;2.03;;;1.70;;
39404;SDS011;25121;51.090;17.038;2023-02-18T01:31:50;3.47;;;1.75;;
39404;SDS011;25121;51.090;17.038;2023-02-18T01:33:13;2.97;;;1.88;;
39404;SDS011;25121;51.090;17.038;2023-02-18T01:34:36;4.20;;;1.80;;
39404;SDS011;25121;51.090;17.038;2023-02-18T01:35:59;2.72;;;1.67;;
39404;SDS011;25121;51.090;17.038;2023-02-18T01:37:22;4.30;;;1.65;;
39404;SDS011;25121;51.090;17.038;2023-02-18T01:40:45;3.92;;;1.60;;
39404;SDS011;25121;51.090;17.038;2023-02-18T01:42:18;3.23;;;2.20;;
39404;SDS011;25121;51.090;17.038;2023-02-18T01:43:42;2.58;;;1.70;;
39404;SDS011;25121;51.090;17.038;2023-02-18T01:47:06;7.05;;;2.25;;
39404;SDS011;25121;51.090;17.038;2023-02-18T01:48:33;2.55;;;1.67;;
39404;SDS011;25121;51.090;17.038;2023-02-18T01:50:00;2.40;;;1.70;;
39404;SDS011;25121;51.090;17.038;2023-02-18T01:51:24;5.13;;;1.50;;
39404;SDS011;25121;51.090;17.038;2023-02-18T01:52:49;4.95;;;1.92;;
39404;SDS011;25121;51.090;17.038;2023-02-18T01:54:14;3.38;;;2.00;;
39404;SDS011;25121;51.090;17.038;2023-02-18T01:55:41;3.13;;;1.98;;
39404;SDS011;25121;51.090;17.038;2023-02-18T01:57:05;1.80;;;1.40;;
39404;SDS011;25121;51.090;17.038;2023-02-18T01:58:30;2.67;;;1.50;;
39404;SDS011;25121;51.090;17.038;2023-02-18T01:59:54;3.80;;;1.70;;
39404;SDS011;25121;51.090;17.038;2023-02-18T02:01:22;2.90;;;1.60;;
39404;SDS011;25121;51.090;17.038;2023-02-18T02:02:50;3.03;;;1.80;;
39404;SDS011;25121;51.090;17.038;2023-02-18T02:04:18;3.03;;;1.67;;
39404;SDS011;25121;51.090;17.038;2023-02-18T02:05:41;1.77;;;1.50;;
39404;SDS011;25121;51.090;17.038;2023-02-18T02:07:08;3.28;;;1.70;;
39404;SDS011;25121;51.090;17.038;2023-02-18T02:08:35;4.45;;;1.60;;
39404;SDS011;25121;51.090;17.038;2023-02-18T02:09:57;2.88;;;1.77;;
39404;SDS011;25121;51.090;17.038;2023-02-18T02:13:27;3.70;;;1.80;;
39404;SDS011;25121;51.090;17.038;2023-02-18T02:15:03;2.70;;;1.63;;
39404;SDS011;25121;51.090;17.038;2023-02-18T02:16:42;4.95;;;2.60;;
39404;SDS011;25121;51.090;17.038;2023-02-18T02:20:28;3.08;;;1.70;;
39404;SDS011;25121;51.090;17.038;2023-02-18T02:22:16;3.42;;;1.65;;
39404;SDS011;25121;51.090;17.038;2023-02-18T02:24:02;3.60;;;1.90;;
39404;SDS011;25121;51.090;17.038;2023-02-18T02:25:56;4.80;;;2.35;;
39404;SDS011;25121;51.090;17.038;2023-02-18T02:27:43;3.97;;;2.05;;
39404;SDS011;25121;51.090;17.038;2023-02-18T02:31:36;6.10;;;1.98;;
39404;SDS011;25121;51.090;17.038;2023-02-18T02:35:00;6.35;;;2.03;;
39404;SDS011;25121;51.090;17.038;2023-02-18T02:36:35;4.80;;;2.03;;
39404;SDS011;25121;51.090;17.038;2023-02-18T02:38:01;6.18;;;3.28;;
39404;SDS011;25121;51.090;17.038;2023-02-18T02:39:30;8.23;;;2.28;;
39404;SDS011;25121;51.090;17.038;2023-02-18T02:41:09;6.43;;;3.17;;
39404;SDS011;25121;51.090;17.038;2023-02-18T02:42:58;2.83;;;1.98;;
39404;SDS011;25121;51.090;17.038;2023-02-18T02:44:41;4.72;;;2.35;;
39404;SDS011;25121;51.090;17.038;2023-02-18T02:46:20;6.03;;;2.00;;
39404;SDS011;25121;51.090;17.038;2023-02-18T02:47:59;5.38;;;1.80;;
39404;SDS011;25121;51.090;17.038;2023-02-18T02:49:32;3.33;;;2.25;;
39404;SDS011;25121;51.090;17.038;2023-02-18T02:51:17;5.63;;;1.80;;
39404;SDS011;25121;51.090;17.038;2023-02-18T02:52:50;6.13;;;2.00;;
39404;SDS011;25121;51.090;17.038;2023-02-18T02:54:18;5.60;;;1.95;;
39404;SDS011;25121;51.090;17.038;2023-02-18T02:55:46;2.17;;;1.88;;
39404;SDS011;25121;51.090;17.038;2023-02-18T02:59:23;3.25;;;1.80;;
39404;SDS011;25121;51.090;17.038;2023-02-18T03:01:03;7.90;;;1.98;;
39404;SDS011;25121;51.090;17.038;2023-02-18T03:02:47;4.93;;;2.00;;
39404;SDS011;25121;51.090;17.038;2023-02-18T03:04:49;5.15;;;2.10;;
39404;SDS011;25121;51.090;17.038;2023-02-18T03:06:42;5.03;;;1.88;;
39404;SDS011;25121;51.090;17.038;2023-02-18T03:08:21;4.55;;;1.50;;
39404;SDS011;25121;51.090;17.038;2023-02-18T03:09:56;3.63;;;1.85;;
39404;SDS011;25121;51.090;17.038;2023-02-18T03:11:29;5.60;;;2.10;;
39404;SDS011;25121;51.090;17.038;2023-02-18T03:13:01;5.80;;;1.92;;
39404;SDS011;25121;51.090;17.038;2023-02-18T03:14:33;6.05;;;1.90;;
39404;SDS011;25121;51.090;17.038;2023-02-18T03:16:10;4.13;;;1.80;;
39404;SDS011;25121;51.090;17.038;2023-02-18T03:17:45;3.22;;;2.03;;
39404;SDS011;25121;51.090;17.038;2023-02-18T03:19:13;2.58;;;1.83;;
39404;SDS011;25121;51.090;17.038;2023-02-18T03:20:52;2.33;;;1.60;;
39404;SDS011;25121;51.090;17.038;2023-02-18T03:22:19;3.20;;;1.70;;
39404;SDS011;25121;51.090;17.038;2023-02-18T03:23:48;3.92;;;1.70;;
39404;SDS011;25121;51.090;17.038;2023-02-18T03:25:14;4.38;;;1.70;;
39404;SDS011;25121;51.090;17.038;2023-02-18T03:26:41;3.60;;;1.50;;
39404;SDS011;25121;51.090;17.038;2023-02-18T03:28:09;3.85;;;2.50;;
39404;SDS011;25121;51.090;17.038;2023-02-18T03:29:35;4.18;;;2.22;;
39404;SDS011;25121;51.090;17.038;2023-02-18T03:30:59;5.38;;;1.85;;
39404;SDS011;25121;51.090;17.038;2023-02-18T03:32:27;5.00;;;2.22;;
39404;SDS011;25121;51.090;17.038;2023-02-18T03:33:58;3.10;;;1.98;;
39404;SDS011;25121;51.090;17.038;2023-02-18T03:35:34;5.50;;;1.80;;
39404;SDS011;25121;51.090;17.038;2023-02-18T03:36:58;3.17;;;1.85;;
39404;SDS011;25121;51.090;17.038;2023-02-18T03:38:27;3.90;;;1.73;;
39404;SDS011;25121;51.090;17.038;2023-02-18T03:39:57;6.10;;;1.70;;
39404;SDS011;25121;51.090;17.038;2023-02-18T03:44:37;3.15;;;1.70;;
39404;SDS011;25121;51.090;17.038;2023-02-18T03:46:04;4.78;;;2.20;;
39404;SDS011;25121;51.090;17.038;2023-02-18T03:47:35;3.97;;;2.10;;
39404;SDS011;25121;51.090;17.038;2023-02-18T03:48:59;4.85;;;2.33;;
39404;SDS011;25121;51.090;17.038;2023-02-18T03:50:31;3.75;;;2.10;;
39404;SDS011;25121;51.090;17.038;2023-02-18T03:54:08;4.32;;;1.63;;
39404;SDS011;25121;51.090;17.038;2023-02-18T03:55:35;6.25;;;1.80;;
39404;SDS011;25121;51.090;17.038;2023-02-18T03:57:01;4.38;;;1.80;;
39404;SDS011;25121;51.090;17.038;2023-02-18T03:58:24;2.20;;;2.00;;
39404;SDS011;25121;51.090;17.038;2023-02-18T03:59:49;4.45;;;1.55;;
39404;SDS011;25121;51.090;17.038;2023-02-18T04:01:10;1.73;;;1.60;;
39404;SDS011;25121;51.090;17.038;2023-02-18T04:02:34;4.78;;;2.13;;
39404;SDS011;25121;51.090;17.038;2023-02-18T04:03:58;2.83;;;1.70;;
39404;SDS011;25121;51.090;17.038;2023-02-18T04:05:22;5.93;;;2.00;;
39404;SDS011;25121;51.090;17.038;2023-02-18T04:06:48;2.20;;;1.52;;
39404;SDS011;25121;51.090;17.038;2023-02-18T04:08:16;4.15;;;1.70;;
39404;SDS011;25121;51.090;17.038;2023-02-18T04:09:39;6.22;;;1.92;;
39404;SDS011;25121;51.090;17.038;2023-02-18T04:11:02;4.00;;;1.60;;
39404;SDS011;25121;51.090;17.038;2023-02-18T04:12:29;5.88;;;1.80;;
39404;SDS011;25121;51.090;17.038;2023-02-18T04:13:54;2.40;;;1.73;;
39404;SDS011;25121;51.090;17.038;2023-02-18T04:15:17;4.75;;;1.90;;
39404;SDS011;25121;51.090;17.038;2023-02-18T04:16:40;3.17;;;1.88;;
39404;SDS011;25121;51.090;17.038;2023-02-18T04:18:05;4.47;;;1.80;;
39404;SDS011;25121;51.090;17.038;2023-02-18T04:19:40;5.80;;;1.80;;
39404;SDS011;25121;51.090;17.038;2023-02-18T04:21:12;3.92;;;1.98;;
39404;SDS011;25121;51.090;17.038;2023-02-18T04:22:33;2.78;;;1.77;;
39404;SDS011;25121;51.090;17.038;2023-02-18T04:24:29;2.75;;;2.03;;
39404;SDS011;25121;51.090;17.038;2023-02-18T04:25:53;6.72;;;1.70;;
39404;SDS011;25121;51.090;17.038;2023-02-18T04:27:16;4.50;;;2.30;;
39404;SDS011;25121;51.090;17.038;2023-02-18T04:28:37;5.78;;;1.90;;
39404;SDS011;25121;51.090;17.038;2023-02-18T04:30:07;3.67;;;1.70;;
39404;SDS011;25121;51.090;17.038;2023-02-18T04:31:30;4.13;;;1.88;;
39404;SDS011;25121;51.090;17.038;2023-02-18T04:32:51;6.53;;;2.22;;
39404;SDS011;25121;51.090;17.038;2023-02-18T04:34:21;4.38;;;2.30;;
39404;SDS011;25121;51.090;17.038;2023-02-18T04:35:42;4.25;;;2.15;;
39404;SDS011;25121;51.090;17.038;2023-02-18T04:37:14;4.10;;;2.30;;
39404;SDS011;25121;51.090;17.038;2023-02-18T04:38:36;6.05;;;2.22;;
39404;SDS011;25121;51.090;17.038;2023-02-18T04:39:59;5.97;;;2.13;;
39404;SDS011;25121;51.090;17.038;2023-02-18T04:41:23;5.38;;;1.90;;
39404;SDS011;25121;51.090;17.038;2023-02-18T04:42:44;5.72;;;1.88;;
39404;SDS011;25121;51.090;17.038;2023-02-18T04:44:06;5.40;;;1.90;;
39404;SDS011;25121;51.090;17.038;2023-02-18T04:45:28;5.00;;;1.80;;
39404;SDS011;25121;51.090;17.038;2023-02-18T04:46:53;4.97;;;1.75;;
39404;SDS011;25121;51.090;17.038;2023-02-18T04:48:16;8.18;;;2.92;;
39404;SDS011;25121;51.090;17.038;2023-02-18T04:49:39;3.70;;;1.90;;
39404;SDS011;25121;51.090;17.038;2023-02-18T04:51:02;5.38;;;1.77;;
39404;SDS011;25121;51.090;17.038;2023-02-18T04:52:24;3.13;;;1.70;;
39404;SDS011;25121;51.090;17.038;2023-02-18T04:53:51;3.38;;;1.75;;
39404;SDS011;25121;51.090;17.038;2023-02-18T04:55:15;4.38;;;1.92;;
39404;SDS011;25121;51.090;17.038;2023-02-18T04:56:38;2.13;;;1.85;;
39404;SDS011;25121;51.090;17.038;2023-02-18T04:58:00;5.63;;;2.00;;
39404;SDS011;25121;51.090;17.038;2023-02-18T04:59:22;3.95;;;1.92;;
39404;SDS011;25121;51.090;17.038;2023-02-18T05:00:45;2.58;;;2.15;;
39404;SDS011;25121;51.090;17.038;2023-02-18T05:02:07;6.10;;;2.20;;
39404;SDS011;25121;51.090;17.038;2023-02-18T05:03:38;6.00;;;2.07;;
39404;SDS011;25121;51.090;17.038;2023-02-18T05:05:00;3.97;;;1.88;;
39404;SDS011;25121;51.090;17.038;2023-02-18T05:06:23;5.88;;;2.20;;
39404;SDS011;25121;51.090;17.038;2023-02-18T05:07:49;7.90;;;1.85;;
39404;SDS011;25121;51.090;17.038;2023-02-18T05:09:23;7.50;;;3.28;;
39404;SDS011;25121;51.090;17.038;2023-02-18T05:10:44;4.25;;;2.10;;
39404;SDS011;25121;51.090;17.038;2023-02-18T05:13:30;4.35;;;2.00;;
39404;SDS011;25121;51.090;17.038;2023-02-18T05:14:51;3.45;;;1.85;;
39404;SDS011;25121;51.090;17.038;2023-02-18T05:16:16;4.82;;;1.80;;
39404;SDS011;25121;51.090;17.038;2023-02-18T05:17:38;4.47;;;1.75;;
39404;SDS011;25121;51.090;17.038;2023-02-18T05:19:01;4.60;;;2.30;;
39404;SDS011;25121;51.090;17.038;2023-02-18T05:20:22;5.10;;;1.73;;
39404;SDS011;25121;51.090;17.038;2023-02-18T05:21:44;4.45;;;2.00;;
39404;SDS011;25121;51.090;17.038;2023-02-18T05:23:08;8.07;;;1.73;;
39404;SDS011;25121;51.090;17.038;2023-02-18T05:24:30;5.50;;;2.58;;
39404;SDS011;25121;51.090;17.038;2023-02-18T05:25:57;4.97;;;2.00;;
39404;SDS011;25121;51.090;17.038;2023-02-18T05:27:56;5.47;;;1.90;;
39404;SDS011;25121;51.090;17.038;2023-02-18T05:29:18;3.80;;;1.90;;
39404;SDS011;25121;51.090;17.038;2023-02-18T05:30:44;4.28;;;1.80;;
39404;SDS011;25121;51.090;17.038;2023-02-18T05:32:08;1.90;;;1.60;;
39404;SDS011;25121;51.090;17.038;2023-02-18T05:33:30;4.65;;;2.10;;
39404;SDS011;25121;51.090;17.038;2023-02-18T05:34:51;4.75;;;2.00;;
39404;SDS011;25121;51.090;17.038;2023-02-18T05:36:21;3.85;;;1.50;;
39404;SDS011;25121;51.090;17.038;2023-02-18T05:37:51;4.32;;;2.00;;
39404;SDS011;25121;51.090;17.038;2023-02-18T05:39:13;5.72;;;2.03;;
39404;SDS011;25121;51.090;17.038;2023-02-18T05:40:35;3.92;;;2.10;;
39404;SDS011;25121;51.090;17.038;2023-02-18T05:42:00;4.35;;;1.90;;
39404;SDS011;25121;51.090;17.038;2023-02-18T05:43:23;7.63;;;1.98;;
39404;SDS011;25121;51.090;17.038;2023-02-18T05:44:45;5.55;;;1.98;;
39404;SDS011;25121;51.090;17.038;2023-02-18T05:46:07;3.80;;;1.73;;
39404;SDS011;25121;51.090;17.038;2023-02-18T05:47:29;3.97;;;1.70;;
39404;SDS011;25121;51.090;17.038;2023-02-18T05:48:54;4.47;;;1.90;;
39404;SDS011;25121;51.090;17.038;2023-02-18T05:50:37;4.05;;;1.75;;
39404;SDS011;25121;51.090;17.038;2023-02-18T05:52:02;6.38;;;1.70;;
39404;SDS011;25121;51.090;17.038;2023-02-18T05:53:24;4.57;;;1.80;;
39404;SDS011;25121;51.090;17.038;2023-02-18T05:54:47;4.10;;;1.73;;
39404;SDS011;25121;51.090;17.038;2023-02-18T05:56:10;2.70;;;1.63;;
39404;SDS011;25121;51.090;17.038;2023-02-18T05:57:33;3.28;;;1.90;;
39404;SDS011;25121;51.090;17.038;2023-02-18T05:58:56;5.43;;;1.98;;
39404;SDS011;25121;51.090;17.038;2023-02-18T06:00:18;6.90;;;2.30;;
39404;SDS011;25121;51.090;17.038;2023-02-18T06:01:43;2.88;;;2.10;;
39404;SDS011;25121;51.090;17.038;2023-02-18T06:03:05;4.80;;;1.80;;
39404;SDS011;25121;51.090;17.038;2023-02-18T06:04:32;4.88;;;2.15;;
39404;SDS011;25121;51.090;17.038;2023-02-18T06:05:57;6.18;;;2.00;;
39404;SDS011;25121;51.090;17.038;2023-02-18T06:07:37;5.10;;;1.92;;
39404;SDS011;25121;51.090;17.038;2023-02-18T06:09:06;4.40;;;1.80;;
39404;SDS011;25121;51.090;17.038;2023-02-18T06:10:29;4.35;;;1.65;;
39404;SDS011;25121;51.090;17.038;2023-02-18T06:12:00;3.58;;;1.73;;
39404;SDS011;25121;51.090;17.038;2023-02-18T06:13:26;4.70;;;1.85;;
39404;SDS011;25121;51.090;17.038;2023-02-18T06:14:49;5.32;;;1.90;;
39404;SDS011;25121;51.090;17.038;2023-02-18T06:16:20;3.08;;;1.83;;
39404;SDS011;25121;51.090;17.038;2023-02-18T06:18:08;3.65;;;1.60;;
39404;SDS011;25121;51.090;17.038;2023-02-18T06:19:56;2.38;;;1.60;;
39404;SDS011;25121;51.090;17.038;2023-02-18T06:21:36;7.38;;;1.90;;
39404;SDS011;25121;51.090;17.038;2023-02-18T06:23:06;3.92;;;1.55;;
39404;SDS011;25121;51.090;17.038;2023-02-18T06:24:48;3.20;;;1.70;;
39404;SDS011;25121;51.090;17.038;2023-02-18T06:27:34;5.18;;;1.80;;
39404;SDS011;25121;51.090;17.038;2023-02-18T06:30:00;2.90;;;1.65;;
39404;SDS011;25121;51.090;17.038;2023-02-18T06:31:31;5.03;;;1.98;;
39404;SDS011;25121;51.090;17.038;2023-02-18T06:33:05;3.22;;;1.42;;
39404;SDS011;25121;51.090;17.038;2023-02-18T06:40:06;4.72;;;1.50;;
39404;SDS011;25121;51.090;17.038;2023-02-18T06:42:14;2.22;;;1.55;;
39404;SDS011;25121;51.090;17.038;2023-02-18T06:44:32;3.20;;;1.40;;
39404;SDS011;25121;51.090;17.038;2023-02-18T06:49:16;3.78;;;1.70;;
39404;SDS011;25121;51.090;17.038;2023-02-18T06:51:02;4.32;;;1.55;;
39404;SDS011;25121;51.090;17.038;2023-02-18T06:54:53;3.33;;;1.80;;
39404;SDS011;25121;51.090;17.038;2023-02-18T06:58:57;4.32;;;1.70;;
39404;SDS011;25121;51.090;17.038;2023-02-18T07:02:37;3.75;;;1.90;;
39404;SDS011;25121;51.090;17.038;2023-02-18T07:07:48;3.70;;;1.98;;
39404;SDS011;25121;51.090;17.038;2023-02-18T07:12:24;4.10;;;1.90;;
39404;SDS011;25121;51.090;17.038;2023-02-18T07:17:26;2.92;;;1.80;;
39404;SDS011;25121;51.090;17.038;2023-02-18T07:22:11;2.03;;;1.55;;
39404;SDS011;25121;51.090;17.038;2023-02-18T07:23:51;4.78;;;2.25;;
39404;SDS011;25121;51.090;17.038;2023-02-18T07:25:20;2.80;;;1.92;;
39404;SDS011;25121;51.090;17.038;2023-02-18T07:26:48;7.05;;;2.15;;
39404;SDS011;25121;51.090;17.038;2023-02-18T07:28:27;2.55;;;1.60;;
39404;SDS011;25121;51.090;17.038;2023-02-18T07:29:51;3.80;;;2.20;;
39404;SDS011;25121;51.090;17.038;2023-02-18T07:31:14;4.47;;;1.92;;
39404;SDS011;25121;51.090;17.038;2023-02-18T07:32:38;4.00;;;1.52;;
39404;SDS011;25121;51.090;17.038;2023-02-18T07:34:03;5.78;;;2.08;;
39404;SDS011;25121;51.090;17.038;2023-02-18T07:35:25;3.97;;;1.75;;
39404;SDS011;25121;51.090;17.038;2023-02-18T07:36:55;6.05;;;1.83;;
39404;SDS011;25121;51.090;17.038;2023-02-18T07:38:31;3.40;;;1.90;;
39404;SDS011;25121;51.090;17.038;2023-02-18T07:40:02;3.30;;;1.83;;
39404;SDS011;25121;51.090;17.038;2023-02-18T07:41:27;5.15;;;1.70;;
39404;SDS011;25121;51.090;17.038;2023-02-18T07:43:09;3.80;;;1.80;;
39404;SDS011;25121;51.090;17.038;2023-02-18T07:49:13;3.00;;;1.67;;
39404;SDS011;25121;51.090;17.038;2023-02-18T07:55:45;3.05;;;1.70;;
39404;SDS011;25121;51.090;17.038;2023-02-18T07:57:43;4.95;;;1.80;;
39404;SDS011;25121;51.090;17.038;2023-02-18T07:59:27;5.53;;;2.20;;
39404;SDS011;25121;51.090;17.038;2023-02-18T08:01:07;3.17;;;1.88;;
39404;SDS011;25121;51.090;17.038;2023-02-18T08:06:24;5.47;;;2.00;;
39404;SDS011;25121;51.090;17.038;2023-02-18T08:08:00;5.25;;;2.17;;
39404;SDS011;25121;51.090;17.038;2023-02-18T08:09:40;2.33;;;1.70;;
39404;SDS011;25121;51.090;17.038;2023-02-18T08:11:22;5.78;;;2.00;;
39404;SDS011;25121;51.090;17.038;2023-02-18T08:17:11;5.82;;;1.83;;
39404;SDS011;25121;51.090;17.038;2023-02-18T08:18:36;5.50;;;1.92;;
39404;SDS011;25121;51.090;17.038;2023-02-18T08:20:35;4.22;;;1.92;;
39404;SDS011;25121;51.090;17.038;2023-02-18T08:22:06;6.35;;;2.15;;
39404;SDS011;25121;51.090;17.038;2023-02-18T08:23:29;6.07;;;2.03;;
39404;SDS011;25121;51.090;17.038;2023-02-18T08:25:10;3.85;;;2.10;;
39404;SDS011;25121;51.090;17.038;2023-02-18T08:27:08;4.38;;;1.75;;
39404;SDS011;25121;51.090;17.038;2023-02-18T08:28:37;8.40;;;2.00;;
39404;SDS011;25121;51.090;17.038;2023-02-18T08:30:07;6.82;;;2.22;;
39404;SDS011;25121;51.090;17.038;2023-02-18T08:31:35;5.68;;;2.35;;
39404;SDS011;25121;51.090;17.038;2023-02-18T08:33:04;6.63;;;2.28;;
39404;SDS011;25121;51.090;17.038;2023-02-18T08:34:26;8.05;;;2.65;;
39404;SDS011;25121;51.090;17.038;2023-02-18T08:35:49;4.43;;;1.83;;
39404;SDS011;25121;51.090;17.038;2023-02-18T08:37:17;6.60;;;2.03;;
39404;SDS011;25121;51.090;17.038;2023-02-18T09:06:47;4.25;;;1.80;;
39404;SDS011;25121;51.090;17.038;2023-02-18T09:12:34;5.00;;;2.08;;
39404;SDS011;25121;51.090;17.038;2023-02-18T09:17:59;4.13;;;1.88;;
39404;SDS011;25121;51.090;17.038;2023-02-18T09:19:41;5.30;;;2.60;;
39404;SDS011;25121;51.090;17.038;2023-02-18T09:22:25;4.15;;;2.33;;
39404;SDS011;25121;51.090;17.038;2023-02-18T09:24:38;5.32;;;1.90;;
39404;SDS011;25121;51.090;17.038;2023-02-18T09:26:32;3.85;;;1.55;;
39404;SDS011;25121;51.090;17.038;2023-02-18T09:31:16;3.53;;;1.60;;
39404;SDS011;25121;51.090;17.038;2023-02-18T09:33:14;4.07;;;1.95;;
39404;SDS011;25121;51.090;17.038;2023-02-18T09:34:55;4.43;;;1.83;;
39404;SDS011;25121;51.090;17.038;2023-02-18T09:36:24;3.05;;;1.90;;
39404;SDS011;25121;51.090;17.038;2023-02-18T09:38:03;4.35;;;1.90;;
39404;SDS011;25121;51.090;17.038;2023-02-18T09:39:52;3.63;;;1.98;;
39404;SDS011;25121;51.090;17.038;2023-02-18T09:43:32;5.78;;;2.08;;
39404;SDS011;25121;51.090;17.038;2023-02-18T09:45:40;4.70;;;2.08;;
39404;SDS011;25121;51.090;17.038;2023-02-18T09:47:38;3.35;;;1.80;;
39404;SDS011;25121;51.090;17.038;2023-02-18T09:51:50;3.58;;;2.15;;
39404;SDS011;25121;51.090;17.038;2023-02-18T09:53:20;4.38;;;2.10;;
39404;SDS011;25121;51.090;17.038;2023-02-18T09:54:49;4.00;;;2.67;;
39404;SDS011;25121;51.090;17.038;2023-02-18T09:56:31;6.07;;;3.43;;
39404;SDS011;25121;51.090;17.038;2023-02-18T10:02:16;3.72;;;2.63;;
39404;SDS011;25121;51.090;17.038;2023-02-18T10:03:57;7.38;;;2.40;;
39404;SDS011;25121;51.090;17.038;2023-02-18T10:05:33;6.20;;;2.95;;
39404;SDS011;25121;51.090;17.038;2023-02-18T10:06:59;7.15;;;2.58;;
39404;SDS011;25121;51.090;17.038;2023-02-18T10:08:27;3.78;;;1.83;;
39404;SDS011;25121;51.090;17.038;2023-02-18T10:09:51;4.30;;;1.88;;
39404;SDS011;25121;51.090;17.038;2023-02-18T10:11:34;4.72;;;1.83;;
39404;SDS011;25121;51.090;17.038;2023-02-18T10:13:12;4.25;;;1.98;;
39404;SDS011;25121;51.090;17.038;2023-02-18T10:14:40;4.10;;;2.90;;
39404;SDS011;25121;51.090;17.038;2023-02-18T10:16:14;6.22;;;2.10;;
39404;SDS011;25121;51.090;17.038;2023-02-18T10:17:46;4.18;;;1.90;;
39404;SDS011;25121;51.090;17.038;2023-02-18T10:19:21;5.78;;;2.25;;
39404;SDS011;25121;51.090;17.038;2023-02-18T10:20:48;3.00;;;2.08;;
39404;SDS011;25121;51.090;17.038;2023-02-18T10:24:39;5.30;;;1.73;;
39404;SDS011;25121;51.090;17.038;2023-02-18T10:26:06;5.05;;;2.55;;
39404;SDS011;25121;51.090;17.038;2023-02-18T10:27:43;4.45;;;2.13;;
39404;SDS011;25121;51.090;17.038;2023-02-18T10:33:34;8.80;;;4.93;;
39404;SDS011;25121;51.090;17.038;2023-02-18T10:35:18;8.65;;;5.13;;
39404;SDS011;25121;51.090;17.038;2023-02-18T10:40:12;7.40;;;2.55;;
39404;SDS011;25121;51.090;17.038;2023-02-18T10:41:58;7.07;;;2.70;;
39404;SDS011;25121;51.090;17.038;2023-02-18T10:43:51;7.30;;;2.70;;
39404;SDS011;25121;51.090;17.038;2023-02-18T10:45:27;6.20;;;3.05;;
39404;SDS011;25121;51.090;17.038;2023-02-18T10:47:05;5.65;;;3.05;;
39404;SDS011;25121;51.090;17.038;2023-02-18T10:48:48;8.80;;;3.22;;
39404;SDS011;25121;51.090;17.038;2023-02-18T10:50:28;9.25;;;3.80;;
39404;SDS011;25121;51.090;17.038;2023-02-18T10:52:04;8.65;;;4.78;;
39404;SDS011;25121;51.090;17.038;2023-02-18T10:53:59;6.32;;;3.42;;
39404;SDS011;25121;51.090;17.038;2023-02-18T10:55:37;8.68;;;2.67;;
39404;SDS011;25121;51.090;17.038;2023-02-18T10:57:16;6.07;;;2.72;;
39404;SDS011;25121;51.090;17.038;2023-02-18T10:58:52;6.82;;;3.20;;
39404;SDS011;25121;51.090;17.038;2023-02-18T11:00:33;9.73;;;3.92;;
39404;SDS011;25121;51.090;17.038;2023-02-18T11:02:38;8.13;;;2.90;;
39404;SDS011;25121;51.090;17.038;2023-02-18T11:04:41;12.10;;;3.78;;
39404;SDS011;25121;51.090;17.038;2023-02-18T11:09:03;10.13;;;3.00;;
39404;SDS011;25121;51.090;17.038;2023-02-18T11:10:34;5.75;;;2.60;;
39404;SDS011;25121;51.090;17.038;2023-02-18T11:12:19;5.55;;;2.85;;
39404;SDS011;25121;51.090;17.038;2023-02-18T11:15:18;6.93;;;3.00;;
39404;SDS011;25121;51.090;17.038;2023-02-18T11:16:06;5.65;;;3.03;;
39404;SDS011;25121;51.090;17.038;2023-02-18T11:17:30;8.98;;;3.30;;
39404;SDS011;25121;51.090;17.038;2023-02-18T11:19:01;8.90;;;3.42;;
39404;SDS011;25121;51.090;17.038;2023-02-18T11:23:47;8.23;;;2.80;;
39404;SDS011;25121;51.090;17.038;2023-02-18T11:25:23;8.00;;;2.65;;
39404;SDS011;25121;51.090;17.038;2023-02-18T11:32:20;8.07;;;3.63;;
39404;SDS011;25121;51.090;17.038;2023-02-18T11:35:24;7.25;;;2.90;;
39404;SDS011;25121;51.090;17.038;2023-02-18T11:37:20;10.65;;;4.50;;
39404;SDS011;25121;51.090;17.038;2023-02-18T11:39:27;6.82;;;3.00;;
39404;SDS011;25121;51.090;17.038;2023-02-18T11:46:33;6.20;;;2.67;;
39404;SDS011;25121;51.090;17.038;2023-02-18T11:48:14;13.02;;;3.30;;
39404;SDS011;25121;51.090;17.038;2023-02-18T11:59:46;10.82;;;4.07;;
39404;SDS011;25121;51.090;17.038;2023-02-18T12:01:11;9.38;;;4.20;;
39404;SDS011;25121;51.090;17.038;2023-02-18T12:02:51;7.95;;;3.63;;
39404;SDS011;25121;51.090;17.038;2023-02-18T12:04:19;11.32;;;4.03;;
39404;SDS011;25121;51.090;17.038;2023-02-18T12:06:10;11.75;;;4.53;;
39404;SDS011;25121;51.090;17.038;2023-02-18T12:07:50;10.38;;;4.40;;
39404;SDS011;25121;51.090;17.038;2023-02-18T12:09:35;8.88;;;3.70;;
39404;SDS011;25121;51.090;17.038;2023-02-18T12:11:33;10.05;;;5.20;;
39404;SDS011;25121;51.090;17.038;2023-02-18T12:14:07;11.60;;;4.80;;
39404;SDS011;25121;51.090;17.038;2023-02-18T12:15:45;12.73;;;6.18;;
39404;SDS011;25121;51.090;17.038;2023-02-18T12:21:11;8.57;;;4.78;;
39404;SDS011;25121;51.090;17.038;2023-02-18T12:22:48;12.05;;;4.82;;
39404;SDS011;25121;51.090;17.038;2023-02-18T12:24:55;9.10;;;5.40;;